sensor_id;sensor_type;location;lat;lon;timestamp;pressure;altitude;pressure_sealevel;temperature;humidity
19005;BME280;9635;52.078;8.648;2024-01-15T00:04:55;98790.47;;;-0.66;100.00
19005;BME280;9635;52.078;8.648;2024-01-15T00:09:59;98785.88;;;-0.62;100.00
19005;BME280;9635;52.078;8.648;2024-01-15T00:15:04;98789.28;;;-0.60;100.00
19005;BME280;9635;52.078;8.648;2024-01-15T00:20:08;98782.09;;;-0.73;100.00
19005;BME280;9635;52.078;8.648;2024-01-15T00:25:11;98782.94;;;-0.72;100.00
19005;BME280;9635;52.078;8.648;2024-01-15T00:30:15;98788.13;;;-0.85;100.00
19005;BME280;9635;52.078;8.648;2024-01-15T00:35:18;98777.00;;;-0.90;100.00
19005;BME280;9635;52.078;8.648;2024-01-15T00:40:21;98763.28;;;-0.52;100.00
19005;BME280;9635;52.078;8.648;2024-01-15T00:45:26;98771.47;;;-0.71;100.00
19005;BME280;9635;52.078;8.648;2024-01-15T00:50:29;98763.66;;;-0.58;100.00
19005;BME280;9635;52.078;8.648;2024-01-15T00:55:32;98778.13;;;-0.80;100.00
19005;BME280;9635;52.078;8.648;2024-01-15T01:00:37;98740.28;;;-0.64;100.00
19005;BME280;9635;52.078;8.648;2024-01-15T01:05:40;98761.56;;;-0.67;100.00
19005;BME280;9635;52.078;8.648;2024-01-15T01:10:43;98765.63;;;-0.76;100.00
19005;BME280;9635;52.078;8.648;2024-01-15T01:15:47;98753.72;;;-0.83;100.00
19005;BME280;9635;52.078;8.648;2024-01-15T01:20:50;98760.28;;;-0.46;100.00
19005;BME280;9635;52.078;8.648;2024-01-15T01:25:53;98757.91;;;-0.36;100.00
19005;BME280;9635;52.078;8.648;2024-01-15T01:30:58;98759.69;;;-0.22;100.00
19005;BME280;9635;52.078;8.648;2024-01-15T01:36:01;98748.56;;;-0.28;100.00
19005;BME280;9635;52.078;8.648;2024-01-15T01:41:09;98756.50;;;-0.56;100.00
19005;BME280;9635;52.078;8.648;2024-01-15T01:46:13;98764.47;;;-0.58;100.00
19005;BME280;9635;52.078;8.648;2024-01-15T01:51:17;98741.81;;;-0.46;100.00
19005;BME280;9635;52.078;8.648;2024-01-15T01:56:21;98727.28;;;-0.53;100.00
19005;BME280;9635;52.078;8.648;2024-01-15T02:01:25;98731.44;;;-0.63;100.00
19005;BME280;9635;52.078;8.648;2024-01-15T02:06:28;98720.78;;;-0.62;100.00
19005;BME280;9635;52.078;8.648;2024-01-15T02:11:32;98711.81;;;-0.31;100.00
19005;BME280;9635;52.078;8.648;2024-01-15T02:16:36;98703.75;;;-0.56;100.00
19005;BME280;9635;52.078;8.648;2024-01-15T02:21:39;98722.59;;;-0.62;100.00
19005;BME280;9635;52.078;8.648;2024-01-15T02:26:43;98725.31;;;-0.50;100.00
19005;BME280;9635;52.078;8.648;2024-01-15T02:31:46;98721.25;;;-0.69;100.00
19005;BME280;9635;52.078;8.648;2024-01-15T02:36:50;98737.34;;;-0.31;100.00
19005;BME280;9635;52.078;8.648;2024-01-15T02:41:54;98718.06;;;-0.60;100.00
19005;BME280;9635;52.078;8.648;2024-01-15T02:46:59;98720.03;;;-0.64;100.00
19005;BME280;9635;52.078;8.648;2024-01-15T02:52:02;98728.91;;;-0.51;100.00
19005;BME280;9635;52.078;8.648;2024-01-15T02:57:07;98724.28;;;-0.61;100.00
19005;BME280;9635;52.078;8.648;2024-01-15T03:02:10;98717.84;;;-0.86;100.00
19005;BME280;9635;52.078;8.648;2024-01-15T03:07:13;98729.75;;;-0.64;100.00
19005;BME280;9635;52.078;8.648;2024-01-15T03:12:18;98737.00;;;-0.54;100.00
19005;BME280;9635;52.078;8.648;2024-01-15T03:17:20;98719.38;;;-0.67;100.00
19005;BME280;9635;52.078;8.648;2024-01-15T03:22:24;98720.91;;;-0.49;100.00
19005;BME280;9635;52.078;8.648;2024-01-15T03:27:29;98706.78;;;-0.77;100.00
19005;BME280;9635;52.078;8.648;2024-01-15T03:32:32;98713.16;;;-0.81;100.00
19005;BME280;9635;52.078;8.648;2024-01-15T03:37:35;98723.06;;;-0.70;100.00
19005;BME280;9635;52.078;8.648;2024-01-15T03:42:39;98719.84;;;-0.89;100.00
19005;BME280;9635;52.078;8.648;2024-01-15T03:47:42;98705.44;;;-0.55;100.00
19005;BME280;9635;52.078;8.648;2024-01-15T03:52:45;98729.34;;;-0.58;100.00
19005;BME280;9635;52.078;8.648;2024-01-15T03:57:50;98714.75;;;-0.64;100.00
19005;BME280;9635;52.078;8.648;2024-01-15T04:02:53;98726.25;;;-0.36;100.00
19005;BME280;9635;52.078;8.648;2024-01-15T04:07:56;98726.91;;;-0.33;100.00
19005;BME280;9635;52.078;8.648;2024-01-15T04:13:00;98741.88;;;-0.33;100.00
19005;BME280;9635;52.078;8.648;2024-01-15T04:18:05;98728.00;;;-0.22;100.00
19005;BME280;9635;52.078;8.648;2024-01-15T04:23:08;98710.25;;;-0.62;100.00
19005;BME280;9635;52.078;8.648;2024-01-15T04:28:13;98696.50;;;-0.38;100.00
19005;BME280;9635;52.078;8.648;2024-01-15T04:33:16;98693.94;;;-0.40;100.00
19005;BME280;9635;52.078;8.648;2024-01-15T04:38:19;98697.53;;;-0.41;100.00
19005;BME280;9635;52.078;8.648;2024-01-15T04:43:23;98708.53;;;-0.34;100.00
19005;BME280;9635;52.078;8.648;2024-01-15T04:48:26;98704.88;;;-0.46;100.00
19005;BME280;9635;52.078;8.648;2024-01-15T04:53:29;98699.41;;;-0.43;100.00
19005;BME280;9635;52.078;8.648;2024-01-15T04:58:34;98690.16;;;-0.36;100.00
19005;BME280;9635;52.078;8.648;2024-01-15T05:03:37;98684.63;;;-0.60;100.00
19005;BME280;9635;52.078;8.648;2024-01-15T05:08:41;98686.97;;;-0.41;100.00
19005;BME280;9635;52.078;8.648;2024-01-15T05:13:45;98674.53;;;-0.53;100.00
19005;BME280;9635;52.078;8.648;2024-01-15T05:18:48;98687.69;;;-0.24;100.00
19005;BME280;9635;52.078;8.648;2024-01-15T05:23:51;98672.19;;;-0.43;100.00
19005;BME280;9635;52.078;8.648;2024-01-15T05:28:55;98675.00;;;-0.32;100.00
19005;BME280;9635;52.078;8.648;2024-01-15T05:33:59;98677.00;;;-0.64;100.00
19005;BME280;9635;52.078;8.648;2024-01-15T05:39:02;98677.19;;;-0.67;100.00
19005;BME280;9635;52.078;8.648;2024-01-15T05:44:06;98685.97;;;-0.25;100.00
19005;BME280;9635;52.078;8.648;2024-01-15T05:49:09;98661.72;;;-0.45;100.00
19005;BME280;9635;52.078;8.648;2024-01-15T05:54:13;98682.28;;;-0.64;100.00
19005;BME280;9635;52.078;8.648;2024-01-15T05:59:17;98674.34;;;-0.50;100.00
19005;BME280;9635;52.078;8.648;2024-01-15T06:04:20;98678.53;;;-0.60;100.00
19005;BME280;9635;52.078;8.648;2024-01-15T06:09:23;98653.81;;;-0.59;100.00
19005;BME280;9635;52.078;8.648;2024-01-15T06:14:28;98675.28;;;-0.37;100.00
19005;BME280;9635;52.078;8.648;2024-01-15T06:19:31;98673.41;;;-0.63;100.00
19005;BME280;9635;52.078;8.648;2024-01-15T06:24:34;98680.78;;;-0.68;100.00
19005;BME280;9635;52.078;8.648;2024-01-15T06:29:38;98684.03;;;-0.36;100.00
19005;BME280;9635;52.078;8.648;2024-01-15T06:34:41;98674.19;;;-0.76;100.00
19005;BME280;9635;52.078;8.648;2024-01-15T06:39:45;98682.94;;;-0.46;100.00
19005;BME280;9635;52.078;8.648;2024-01-15T06:44:49;98683.97;;;-0.78;100.00
19005;BME280;9635;52.078;8.648;2024-01-15T06:49:52;98692.81;;;-0.50;100.00
19005;BME280;9635;52.078;8.648;2024-01-15T06:54:55;98677.56;;;-0.88;100.00
19005;BME280;9635;52.078;8.648;2024-01-15T07:00:00;98682.28;;;-0.79;100.00
19005;BME280;9635;52.078;8.648;2024-01-15T07:05:03;98693.78;;;-0.10;100.00
19005;BME280;9635;52.078;8.648;2024-01-15T07:10:07;98703.16;;;-0.47;100.00
19005;BME280;9635;52.078;8.648;2024-01-15T07:15:12;98696.41;;;-0.51;100.00
19005;BME280;9635;52.078;8.648;2024-01-15T07:20:15;98700.34;;;-0.73;100.00
19005;BME280;9635;52.078;8.648;2024-01-15T07:25:21;98696.19;;;-0.48;100.00
19005;BME280;9635;52.078;8.648;2024-01-15T07:30:25;98705.63;;;-0.30;100.00
19005;BME280;9635;52.078;8.648;2024-01-15T07:35:28;98691.22;;;-0.67;100.00
19005;BME280;9635;52.078;8.648;2024-01-15T07:40:31;98691.69;;;-0.75;100.00
19005;BME280;9635;52.078;8.648;2024-01-15T07:45:35;98695.63;;;-0.39;100.00
19005;BME280;9635;52.078;8.648;2024-01-15T07:50:38;98700.25;;;-0.42;100.00
19005;BME280;9635;52.078;8.648;2024-01-15T07:55:41;98712.56;;;-0.29;100.00
19005;BME280;9635;52.078;8.648;2024-01-15T08:00:46;98710.59;;;-0.39;100.00
19005;BME280;9635;52.078;8.648;2024-01-15T08:05:49;98709.41;;;-0.77;100.00
19005;BME280;9635;52.078;8.648;2024-01-15T08:10:54;98710.31;;;-0.35;100.00
19005;BME280;9635;52.078;8.648;2024-01-15T08:15:58;98706.66;;;-0.46;100.00
19005;BME280;9635;52.078;8.648;2024-01-15T08:21:01;98712.59;;;-0.57;100.00
19005;BME280;9635;52.078;8.648;2024-01-15T08:26:04;98708.06;;;-0.26;100.00
19005;BME280;9635;52.078;8.648;2024-01-15T08:31:09;98708.81;;;-0.53;100.00
19005;BME280;9635;52.078;8.648;2024-01-15T08:36:12;98703.41;;;-0.23;100.00
19005;BME280;9635;52.078;8.648;2024-01-15T08:41:15;98702.06;;;-0.57;100.00
19005;BME280;9635;52.078;8.648;2024-01-15T08:46:20;98708.44;;;-0.61;100.00
19005;BME280;9635;52.078;8.648;2024-01-15T08:51:23;98703.56;;;-0.82;100.00
19005;BME280;9635;52.078;8.648;2024-01-15T08:56:26;98692.63;;;-0.33;100.00
19005;BME280;9635;52.078;8.648;2024-01-15T09:01:33;98707.91;;;-0.52;100.00
19005;BME280;9635;52.078;8.648;2024-01-15T09:06:40;98696.94;;;-1.03;100.00
19005;BME280;9635;52.078;8.648;2024-01-15T09:11:45;98711.34;;;-0.66;100.00
19005;BME280;9635;52.078;8.648;2024-01-15T09:16:49;98706.91;;;-1.08;100.00
19005;BME280;9635;52.078;8.648;2024-01-15T09:21:52;98702.47;;;-1.22;100.00
19005;BME280;9635;52.078;8.648;2024-01-15T09:26:55;98716.56;;;-0.93;100.00
19005;BME280;9635;52.078;8.648;2024-01-15T09:32:00;98708.59;;;-1.07;100.00
19005;BME280;9635;52.078;8.648;2024-01-15T09:37:05;98699.31;;;-0.84;100.00
19005;BME280;9635;52.078;8.648;2024-01-15T09:42:08;98715.63;;;-1.36;100.00
19005;BME280;9635;52.078;8.648;2024-01-15T09:47:14;98699.66;;;-1.05;100.00
19005;BME280;9635;52.078;8.648;2024-01-15T09:52:19;98705.06;;;-0.63;100.00
19005;BME280;9635;52.078;8.648;2024-01-15T09:57:22;98697.22;;;-0.22;100.00
19005;BME280;9635;52.078;8.648;2024-01-15T10:02:26;98695.72;;;-0.69;100.00
19005;BME280;9635;52.078;8.648;2024-01-15T10:07:30;98699.13;;;-0.38;100.00
19005;BME280;9635;52.078;8.648;2024-01-15T10:12:36;98691.97;;;-0.65;100.00
19005;BME280;9635;52.078;8.648;2024-01-15T10:17:41;98687.47;;;-0.63;100.00
19005;BME280;9635;52.078;8.648;2024-01-15T10:22:45;98707.97;;;-0.54;100.00
19005;BME280;9635;52.078;8.648;2024-01-15T10:27:59;98704.03;;;-0.46;100.00
19005;BME280;9635;52.078;8.648;2024-01-15T10:33:04;98699.09;;;-0.24;100.00
19005;BME280;9635;52.078;8.648;2024-01-15T10:38:07;98684.19;;;-0.25;100.00
19005;BME280;9635;52.078;8.648;2024-01-15T10:43:10;98680.47;;;-0.35;100.00
19005;BME280;9635;52.078;8.648;2024-01-15T10:48:17;98664.13;;;-0.28;100.00
19005;BME280;9635;52.078;8.648;2024-01-15T10:53:21;98675.50;;;0.54;100.00
19005;BME280;9635;52.078;8.648;2024-01-15T10:58:25;98677.19;;;0.15;100.00
19005;BME280;9635;52.078;8.648;2024-01-15T11:03:34;98674.28;;;0.33;100.00
19005;BME280;9635;52.078;8.648;2024-01-15T11:08:38;98679.97;;;-0.00;100.00
19005;BME280;9635;52.078;8.648;2024-01-15T11:13:45;98673.28;;;0.08;100.00
19005;BME280;9635;52.078;8.648;2024-01-15T11:19:05;98682.03;;;0.09;100.00
19005;BME280;9635;52.078;8.648;2024-01-15T11:24:10;98672.59;;;-0.22;100.00
19005;BME280;9635;52.078;8.648;2024-01-15T11:29:29;98672.75;;;0.16;100.00
19005;BME280;9635;52.078;8.648;2024-01-15T11:34:54;98678.59;;;-0.06;100.00
19005;BME280;9635;52.078;8.648;2024-01-15T11:40:02;98672.72;;;0.03;100.00
19005;BME280;9635;52.078;8.648;2024-01-15T11:45:06;98663.09;;;0.02;100.00
19005;BME280;9635;52.078;8.648;2024-01-15T11:50:11;98674.13;;;0.36;100.00
19005;BME280;9635;52.078;8.648;2024-01-15T11:55:19;98680.59;;;0.17;100.00
19005;BME280;9635;52.078;8.648;2024-01-15T12:00:22;98665.53;;;0.05;100.00
19005;BME280;9635;52.078;8.648;2024-01-15T12:05:27;98667.53;;;0.02;100.00
19005;BME280;9635;52.078;8.648;2024-01-15T12:10:30;98671.28;;;0.12;100.00
19005;BME280;9635;52.078;8.648;2024-01-15T12:15:33;98666.69;;;0.28;100.00
19005;BME280;9635;52.078;8.648;2024-01-15T12:20:39;98660.03;;;0.23;100.00
19005;BME280;9635;52.078;8.648;2024-01-15T12:25:42;98682.78;;;-0.31;100.00
19005;BME280;9635;52.078;8.648;2024-01-15T12:30:47;98676.44;;;0.13;100.00
19005;BME280;9635;52.078;8.648;2024-01-15T12:35:54;98667.47;;;0.16;100.00
19005;BME280;9635;52.078;8.648;2024-01-15T12:40:57;98665.72;;;0.16;100.00
19005;BME280;9635;52.078;8.648;2024-01-15T12:46:00;98672.09;;;0.39;100.00
19005;BME280;9635;52.078;8.648;2024-01-15T12:51:07;98674.63;;;-0.40;100.00
19005;BME280;9635;52.078;8.648;2024-01-15T12:56:10;98665.50;;;0.20;100.00
19005;BME280;9635;52.078;8.648;2024-01-15T13:01:13;98664.97;;;0.27;100.00
19005;BME280;9635;52.078;8.648;2024-01-15T13:06:18;98675.75;;;-0.03;100.00
19005;BME280;9635;52.078;8.648;2024-01-15T13:11:21;98675.75;;;-0.44;100.00
19005;BME280;9635;52.078;8.648;2024-01-15T13:16:24;98671.63;;;0.20;100.00
19005;BME280;9635;52.078;8.648;2024-01-15T13:21:30;98656.97;;;0.94;100.00
19005;BME280;9635;52.078;8.648;2024-01-15T13:26:33;98661.88;;;0.48;100.00
19005;BME280;9635;52.078;8.648;2024-01-15T13:31:36;98660.56;;;0.41;100.00
19005;BME280;9635;52.078;8.648;2024-01-15T13:36:41;98669.53;;;-0.02;100.00
19005;BME280;9635;52.078;8.648;2024-01-15T13:41:44;98672.38;;;-0.05;100.00
19005;BME280;9635;52.078;8.648;2024-01-15T13:46:47;98666.09;;;0.10;100.00
19005;BME280;9635;52.078;8.648;2024-01-15T13:51:52;98667.25;;;0.06;100.00
19005;BME280;9635;52.078;8.648;2024-01-15T13:56:55;98676.91;;;-0.07;100.00
19005;BME280;9635;52.078;8.648;2024-01-15T14:01:58;98673.44;;;-0.08;100.00
19005;BME280;9635;52.078;8.648;2024-01-15T14:07:02;98661.75;;;-0.18;100.00
19005;BME280;9635;52.078;8.648;2024-01-15T14:12:06;98671.69;;;0.06;100.00
19005;BME280;9635;52.078;8.648;2024-01-15T14:17:09;98675.53;;;-0.27;100.00
19005;BME280;9635;52.078;8.648;2024-01-15T14:22:13;98676.53;;;-0.15;100.00
19005;BME280;9635;52.078;8.648;2024-01-15T14:27:17;98692.06;;;-0.38;100.00
19005;BME280;9635;52.078;8.648;2024-01-15T14:32:19;98702.13;;;-0.59;100.00
19005;BME280;9635;52.078;8.648;2024-01-15T14:37:24;98713.34;;;-0.26;100.00
19005;BME280;9635;52.078;8.648;2024-01-15T14:42:27;98692.06;;;-0.66;100.00
19005;BME280;9635;52.078;8.648;2024-01-15T14:47:31;98700.09;;;-0.68;100.00
19005;BME280;9635;52.078;8.648;2024-01-15T14:52:35;98710.03;;;-0.44;100.00
19005;BME280;9635;52.078;8.648;2024-01-15T14:57:38;98717.69;;;-0.54;100.00
19005;BME280;9635;52.078;8.648;2024-01-15T15:02:41;98723.91;;;-0.69;100.00
19005;BME280;9635;52.078;8.648;2024-01-15T15:07:46;98741.41;;;-0.40;100.00
19005;BME280;9635;52.078;8.648;2024-01-15T15:12:49;98757.97;;;-0.81;100.00
19005;BME280;9635;52.078;8.648;2024-01-15T15:17:52;98770.13;;;-0.78;100.00
19005;BME280;9635;52.078;8.648;2024-01-15T15:22:56;98783.94;;;-0.30;100.00
19005;BME280;9635;52.078;8.648;2024-01-15T15:27:59;98783.63;;;-0.40;100.00
19005;BME280;9635;52.078;8.648;2024-01-15T15:33:03;98793.59;;;-0.45;100.00
19005;BME280;9635;52.078;8.648;2024-01-15T15:38:08;98805.50;;;-0.52;100.00
19005;BME280;9635;52.078;8.648;2024-01-15T15:43:11;98814.56;;;-0.13;100.00
19005;BME280;9635;52.078;8.648;2024-01-15T15:48:14;98831.13;;;0.03;100.00
19005;BME280;9635;52.078;8.648;2024-01-15T15:53:19;98838.00;;;-0.37;100.00
19005;BME280;9635;52.078;8.648;2024-01-15T15:58:23;98846.75;;;-0.22;100.00
19005;BME280;9635;52.078;8.648;2024-01-15T16:03:26;98845.91;;;-0.52;100.00
19005;BME280;9635;52.078;8.648;2024-01-15T16:08:31;98872.88;;;-0.46;100.00
19005;BME280;9635;52.078;8.648;2024-01-15T16:13:34;98873.06;;;-0.35;100.00
19005;BME280;9635;52.078;8.648;2024-01-15T16:18:37;98877.06;;;-0.88;100.00
19005;BME280;9635;52.078;8.648;2024-01-15T16:24:01;98868.16;;;-0.72;100.00
19005;BME280;9635;52.078;8.648;2024-01-15T16:29:23;98876.44;;;-0.78;100.00
19005;BME280;9635;52.078;8.648;2024-01-15T16:34:26;98897.72;;;-0.81;100.00
19005;BME280;9635;52.078;8.648;2024-01-15T16:39:30;98896.75;;;-0.80;100.00
19005;BME280;9635;52.078;8.648;2024-01-15T16:44:33;98907.06;;;-0.75;100.00
19005;BME280;9635;52.078;8.648;2024-01-15T16:49:36;98917.81;;;-0.64;100.00
19005;BME280;9635;52.078;8.648;2024-01-15T16:54:41;98933.41;;;-0.59;100.00
19005;BME280;9635;52.078;8.648;2024-01-15T16:59:44;98944.75;;;-0.89;100.00
19005;BME280;9635;52.078;8.648;2024-01-15T17:04:47;98941.84;;;-0.68;100.00
19005;BME280;9635;52.078;8.648;2024-01-15T17:09:52;98959.09;;;-0.63;100.00
19005;BME280;9635;52.078;8.648;2024-01-15T17:14:55;98948.56;;;-0.63;100.00
19005;BME280;9635;52.078;8.648;2024-01-15T17:19:58;98955.66;;;-0.49;100.00
19005;BME280;9635;52.078;8.648;2024-01-15T17:25:03;98966.63;;;-0.41;100.00
19005;BME280;9635;52.078;8.648;2024-01-15T17:30:07;98977.28;;;-0.74;100.00
19005;BME280;9635;52.078;8.648;2024-01-15T17:35:10;98979.66;;;-0.54;100.00
19005;BME280;9635;52.078;8.648;2024-01-15T17:40:15;98982.59;;;-0.44;100.00
19005;BME280;9635;52.078;8.648;2024-01-15T17:45:18;98987.09;;;-1.08;100.00
19005;BME280;9635;52.078;8.648;2024-01-15T17:50:22;98990.81;;;-0.48;100.00
19005;BME280;9635;52.078;8.648;2024-01-15T17:55:27;98981.06;;;-0.94;100.00
19005;BME280;9635;52.078;8.648;2024-01-15T18:00:30;98993.94;;;-0.58;100.00
19005;BME280;9635;52.078;8.648;2024-01-15T18:05:34;99000.78;;;-0.85;100.00
19005;BME280;9635;52.078;8.648;2024-01-15T18:10:38;99005.88;;;-0.66;100.00
19005;BME280;9635;52.078;8.648;2024-01-15T18:15:41;99002.91;;;-0.60;100.00
19005;BME280;9635;52.078;8.648;2024-01-15T18:20:44;99011.69;;;-1.07;100.00
19005;BME280;9635;52.078;8.648;2024-01-15T18:25:48;99018.16;;;-0.97;100.00
19005;BME280;9635;52.078;8.648;2024-01-15T18:30:52;99017.72;;;-1.05;100.00
19005;BME280;9635;52.078;8.648;2024-01-15T18:35:55;99011.84;;;-1.10;100.00
19005;BME280;9635;52.078;8.648;2024-01-15T18:41:00;99021.69;;;-1.30;100.00
19005;BME280;9635;52.078;8.648;2024-01-15T18:46:06;99036.69;;;-0.83;100.00
19005;BME280;9635;52.078;8.648;2024-01-15T18:51:19;99049.25;;;-0.88;100.00
19005;BME280;9635;52.078;8.648;2024-01-15T18:56:23;99044.53;;;-0.81;100.00
19005;BME280;9635;52.078;8.648;2024-01-15T19:01:27;99050.81;;;-0.68;100.00
19005;BME280;9635;52.078;8.648;2024-01-15T19:06:31;99055.50;;;-0.73;100.00
19005;BME280;9635;52.078;8.648;2024-01-15T19:11:35;99070.19;;;-1.01;100.00
19005;BME280;9635;52.078;8.648;2024-01-15T19:16:38;99079.22;;;-0.57;100.00
19005;BME280;9635;52.078;8.648;2024-01-15T19:21:41;99086.84;;;-1.00;100.00
19005;BME280;9635;52.078;8.648;2024-01-15T19:26:47;99089.28;;;-1.13;100.00
19005;BME280;9635;52.078;8.648;2024-01-15T19:31:50;99088.28;;;-1.10;100.00
19005;BME280;9635;52.078;8.648;2024-01-15T19:36:53;99090.53;;;-0.87;100.00
19005;BME280;9635;52.078;8.648;2024-01-15T19:41:58;99095.03;;;-0.89;100.00
19005;BME280;9635;52.078;8.648;2024-01-15T19:47:01;99121.84;;;-0.65;100.00
19005;BME280;9635;52.078;8.648;2024-01-15T19:52:04;99115.84;;;-1.00;100.00
19005;BME280;9635;52.078;8.648;2024-01-15T19:57:08;99123.88;;;-0.70;100.00
19005;BME280;9635;52.078;8.648;2024-01-15T20:02:11;99137.03;;;-0.86;100.00
19005;BME280;9635;52.078;8.648;2024-01-15T20:07:15;99131.03;;;-0.40;100.00
19005;BME280;9635;52.078;8.648;2024-01-15T20:12:20;99144.91;;;-0.53;100.00
19005;BME280;9635;52.078;8.648;2024-01-15T20:17:23;99139.28;;;-0.78;100.00
19005;BME280;9635;52.078;8.648;2024-01-15T20:22:27;99167.88;;;-0.39;100.00
19005;BME280;9635;52.078;8.648;2024-01-15T20:27:35;99168.91;;;-0.57;100.00
19005;BME280;9635;52.078;8.648;2024-01-15T20:32:38;99176.88;;;-0.75;100.00
19005;BME280;9635;52.078;8.648;2024-01-15T20:37:41;99170.25;;;-0.99;100.00
19005;BME280;9635;52.078;8.648;2024-01-15T20:42:46;99179.84;;;-0.81;100.00
19005;BME280;9635;52.078;8.648;2024-01-15T20:47:49;99174.63;;;-0.49;100.00
19005;BME280;9635;52.078;8.648;2024-01-15T20:52:52;99193.81;;;-0.79;100.00
19005;BME280;9635;52.078;8.648;2024-01-15T20:57:56;99210.00;;;-0.53;100.00
19005;BME280;9635;52.078;8.648;2024-01-15T21:02:59;99210.00;;;-0.53;100.00
19005;BME280;9635;52.078;8.648;2024-01-15T21:08:03;99223.69;;;-0.96;100.00
19005;BME280;9635;52.078;8.648;2024-01-15T21:13:07;99228.09;;;-0.30;100.00
19005;BME280;9635;52.078;8.648;2024-01-15T21:18:10;99232.25;;;-0.75;100.00
19005;BME280;9635;52.078;8.648;2024-01-15T21:23:13;99223.47;;;-0.42;100.00
19005;BME280;9635;52.078;8.648;2024-01-15T21:28:18;99217.19;;;-0.23;100.00
19005;BME280;9635;52.078;8.648;2024-01-15T21:33:21;99228.41;;;-0.36;100.00
19005;BME280;9635;52.078;8.648;2024-01-15T21:38:24;99254.00;;;-0.54;100.00
19005;BME280;9635;52.078;8.648;2024-01-15T21:43:28;99243.06;;;-0.30;100.00
19005;BME280;9635;52.078;8.648;2024-01-15T21:48:31;99243.97;;;-0.47;100.00
19005;BME280;9635;52.078;8.648;2024-01-15T21:53:34;99257.13;;;-0.63;100.00
19005;BME280;9635;52.078;8.648;2024-01-15T21:58:40;99273.81;;;-0.80;100.00
19005;BME280;9635;52.078;8.648;2024-01-15T22:03:44;99268.53;;;-0.29;100.00
19005;BME280;9635;52.078;8.648;2024-01-15T22:08:47;99273.72;;;-0.61;100.00
19005;BME280;9635;52.078;8.648;2024-01-15T22:13:53;99275.16;;;-0.38;100.00
19005;BME280;9635;52.078;8.648;2024-01-15T22:18:56;99287.78;;;-0.60;100.00
19005;BME280;9635;52.078;8.648;2024-01-15T22:24:03;99298.16;;;-0.57;100.00
19005;BME280;9635;52.078;8.648;2024-01-15T22:29:08;99301.44;;;-0.87;100.00
19005;BME280;9635;52.078;8.648;2024-01-15T22:34:11;99297.59;;;-0.46;100.00
19005;BME280;9635;52.078;8.648;2024-01-15T22:39:14;99312.69;;;-0.83;100.00
19005;BME280;9635;52.078;8.648;2024-01-15T22:44:18;99314.00;;;-0.24;100.00
19005;BME280;9635;52.078;8.648;2024-01-15T22:49:21;99333.47;;;-0.95;100.00
19005;BME280;9635;52.078;8.648;2024-01-15T22:54:25;99328.19;;;-0.95;100.00
19005;BME280;9635;52.078;8.648;2024-01-15T22:59:29;99319.56;;;-0.63;100.00
19005;BME280;9635;52.078;8.648;2024-01-15T23:04:32;99314.94;;;-0.93;100.00
19005;BME280;9635;52.078;8.648;2024-01-15T23:09:35;99328.88;;;-0.91;100.00
19005;BME280;9635;52.078;8.648;2024-01-15T23:14:39;99343.31;;;-0.81;100.00
19005;BME280;9635;52.078;8.648;2024-01-15T23:19:43;99339.38;;;-1.07;100.00
19005;BME280;9635;52.078;8.648;2024-01-15T23:24:46;99355.56;;;-0.97;100.00
19005;BME280;9635;52.078;8.648;2024-01-15T23:29:50;99349.50;;;-0.99;100.00
19005;BME280;9635;52.078;8.648;2024-01-15T23:34:53;99367.91;;;-0.98;100.00
19005;BME280;9635;52.078;8.648;2024-01-15T23:39:56;99378.28;;;-0.95;100.00
19005;BME280;9635;52.078;8.648;2024-01-15T23:45:00;99380.56;;;-0.52;100.00
19005;BME280;9635;52.078;8.648;2024-01-15T23:50:03;99367.53;;;-0.90;100.00
19005;BME280;9635;52.078;8.648;2024-01-15T23:55:07;99374.38;;;-0.68;100.00
